Apia Wharf, Samoa

12:17 PM WSDT on February 06, 2016 (GMT +1400)
Faleolo International | | Change Station
CLOSE
Current Station
Airport
Location: Faleolo,
Elevation: 16 ft
Nearby Weather Stations

Elev 16 ft 13.83 °S, 172.01 °W | Updated 17 minutes ago

Scattered Clouds
Scattered Clouds
90 °F
Feels Like 102 °F
N
15
Wind Variable Wind from East

Today
High -- | Low -- °F
--% Chance of Precip.
Yesterday
High -- | Low -- °F
Precip. -- in
Pressure 29.80 in
Visibility 6.2 miles
Clouds Few 2000 ft
Scattered Clouds 30000 ft
Heat Index 102 °F
Dew Point 77 °F
Humidity 66%
Rainfall 0.00 in
Snow Depth Not available.
7:21 AM 8:00 PM
Waning Crescent, 9% visible
METAR NSFA 052200Z 08013KT 9999 FEW020 SCT300 32/25 Q1009
Pressure 29.80 in
Visibility 6.2 miles
Clouds Few 2000 ft
Scattered Clouds 30000 ft
Heat Index 102 °F
Dew Point 77 °F
Humidity 66%
Rainfall 0.00 in
Snow Depth Not available.
7:21 AM 8:00 PM
Waning Crescent, 9% visible
METAR NSFA 052200Z 08013KT 9999 FEW020 SCT300 32/25 Q1009

10-Day Weather Forecast

No radar image for this location.
×

Almanac

Astronomy

Feb. 06, 2016 Rise Set
Actual Time
Civil Twilight
Nautical Twilight
Astronomical Twilight
Moon
Length of Visible Light
Length of Day
Tomorrow will be .
, % of the Moon is Illuminated

Today's Extremes

Country Highs Country Lows

Community

WunderPhotos

Upload Photos

1,890,876 photos uploaded!

WunderBlog® & News

Nearby

Air Quality

  Air Quality AQ Index Pollutant
Not available.

Snow Depth

Station Depth Elevation

Earthquake Activity

City Distance Mag. Time & Date
Minimum magnitude displayed is 2.5.

Coastal Water Temperatures

Place Temperature

Stations

Nearby Weather Stations

Station Location Temp. Windchill Dew Point Humidity Wind Precip. Elev Updated Type